createdAt,value
2023-11-03T00:00:15.268Z,99388.8
2023-11-03T00:01:15.094Z,99385.02
2023-11-03T00:02:15.196Z,99385.89
2023-11-03T00:03:15.698Z,99389.16
2023-11-03T00:04:16.188Z,99385.09
2023-11-03T00:05:16.603Z,99388.24
2023-11-03T00:06:16.638Z,99386.46
2023-11-03T00:07:17.005Z,99379.38
2023-11-03T00:08:17.271Z,99375.12
2023-11-03T00:09:17.790Z,99375.53
2023-11-03T00:10:18.020Z,99371.12
2023-11-03T00:11:18.316Z,99367.36
2023-11-03T00:12:19.141Z,99367.55
2023-11-03T00:13:19.040Z,99370.67
2023-11-03T00:14:19.250Z,99373.83
2023-11-03T00:15:20.690Z,99374.64
2023-11-03T00:16:19.983Z,99377
2023-11-03T00:17:20.311Z,99379.34
2023-11-03T00:18:22.732Z,99380.95
2023-11-03T00:19:21.080Z,99378.32
2023-11-03T00:20:21.251Z,99379.27
2023-11-03T00:21:22.278Z,99378.91
2023-11-03T00:22:21.964Z,99376.28
2023-11-03T00:23:22.997Z,99376.86
2023-11-03T00:24:22.895Z,99373.43
2023-11-03T00:25:23.328Z,99371.38
2023-11-03T00:26:23.232Z,99375.29
2023-11-03T00:27:23.535Z,99376.01
2023-11-03T00:28:23.957Z,99381.38
2023-11-03T00:29:24.810Z,99381.84
2023-11-03T00:30:24.472Z,99384.91
2023-11-03T00:31:24.897Z,99385.91
2023-11-03T00:32:25.260Z,99385.18
2023-11-03T00:33:25.637Z,99384.38
2023-11-03T00:34:25.726Z,99381.33
2023-11-03T00:35:26.345Z,99381.45
2023-11-03T00:36:26.470Z,99382.09
2023-11-03T00:37:26.980Z,99381.91
2023-11-03T00:38:27.235Z,99382.25
2023-11-03T00:39:27.620Z,99384.45
2023-11-03T00:40:27.927Z,99379.35
2023-11-03T00:41:28.439Z,99383.98
2023-11-03T00:42:28.551Z,99384.06
2023-11-03T00:43:28.976Z,99382
2023-11-03T00:44:29.190Z,99380.8
2023-11-03T00:45:29.900Z,99379.59
2023-11-03T00:46:29.825Z,99376.42
2023-11-03T00:47:31.252Z,99379.66
2023-11-03T00:48:30.471Z,99373.67
2023-11-03T00:49:30.930Z,99370.39
2023-11-03T00:50:31.075Z,99376.69
2023-11-03T00:51:31.591Z,99377.65
2023-11-03T00:52:31.697Z,99375.93
2023-11-03T00:53:32.112Z,99378.78
2023-11-03T00:54:32.444Z,99376.5
2023-11-03T00:55:32.944Z,99380.36
2023-11-03T00:56:33.981Z,99377.42
2023-11-03T00:57:33.847Z,99376.17
2023-11-03T00:58:33.985Z,99372.56
2023-11-03T00:59:34.319Z,99371.1
2023-11-03T01:00:34.513Z,99375.09
2023-11-03T01:01:35.453Z,99371.12
2023-11-03T01:02:35.441Z,99369.72
2023-11-03T01:03:35.695Z,99369.67
2023-11-03T01:04:35.821Z,99370.56
2023-11-03T01:05:36.078Z,99372.14
2023-11-03T01:06:36.409Z,99373.54
2023-11-03T01:07:36.801Z,99373.4
2023-11-03T01:08:37.308Z,99373.84
2023-11-03T01:09:37.448Z,99372.14
2023-11-03T01:10:37.853Z,99371.94
2023-11-03T01:11:38.518Z,99373.8
2023-11-03T01:12:38.397Z,99369.12
2023-11-03T01:13:38.906Z,99369.74
2023-11-03T01:14:39.121Z,99370.55
2023-11-03T01:15:41.093Z,99370.84
2023-11-03T01:16:39.643Z,99364.28
2023-11-03T01:17:40.320Z,99362.25
2023-11-03T01:18:40.806Z,99362.05
2023-11-03T01:19:40.810Z,99358.69
2023-11-03T01:20:41.098Z,99356.33
2023-11-03T01:21:41.558Z,99352.39
2023-11-03T01:22:41.834Z,99353
2023-11-03T01:23:43.370Z,99347.84
2023-11-03T01:24:42.370Z,99348.5
2023-11-03T01:25:43.894Z,99348.64
2023-11-03T01:26:42.966Z,99349.89
2023-11-03T01:27:46.233Z,99348.13
2023-11-03T01:28:44.451Z,99346.95
2023-11-03T01:29:44.437Z,99351.67
2023-11-03T01:30:44.894Z,99351.78
2023-11-03T01:31:44.959Z,99351.59
2023-11-03T01:32:45.450Z,99351.84
2023-11-03T01:33:45.812Z,99355
2023-11-03T01:34:46.005Z,99352.39
2023-11-03T01:35:46.332Z,99355.3
2023-11-03T01:36:46.653Z,99352.41
2023-11-03T01:37:47.081Z,99347.92
2023-11-03T01:38:47.270Z,99350.11
2023-11-03T01:39:47.595Z,99349.31
2023-11-03T01:40:48.098Z,99346.17
2023-11-03T01:41:48.213Z,99349.69
2023-11-03T01:42:49.497Z,99350.77
2023-11-03T01:44:49.763Z,99346.72
2023-11-03T01:45:50.399Z,99347.62
2023-11-03T01:46:50.702Z,99351.14
2023-11-03T01:47:50.941Z,99353.12
2023-11-03T01:48:51.314Z,99348.94
2023-11-03T01:49:51.823Z,99347.44
2023-11-03T01:50:52.037Z,99351.16
2023-11-03T01:51:52.671Z,99350.62
2023-11-03T01:52:53.190Z,99349.48
2023-11-03T01:53:53.213Z,99345.45
2023-11-03T01:54:54.157Z,99347.88
2023-11-03T01:55:53.614Z,99341.36
2023-11-03T01:56:54.548Z,99344.25
2023-11-03T01:57:54.159Z,99343.17
2023-11-03T01:58:55.267Z,99346.8
2023-11-03T01:59:56.509Z,99346.88
2023-11-03T02:00:56.202Z,99347.66
2023-11-03T02:01:56.417Z,99348.61
2023-11-03T02:02:56.066Z,99345.99
2023-11-03T02:03:56.784Z,99344.86
2023-11-03T02:04:56.501Z,99338.62
2023-11-03T02:05:56.776Z,99346.5
2023-11-03T02:06:57.360Z,99347.06
2023-11-03T02:07:57.487Z,99343.91
2023-11-03T02:08:57.909Z,99348.25
2023-11-03T02:09:58.041Z,99348.97
2023-11-03T02:10:58.632Z,99350.52
2023-11-03T02:11:59.169Z,99351.36
2023-11-03T02:12:59.193Z,99353.97
2023-11-03T02:13:59.470Z,99352.2
2023-11-03T02:14:59.675Z,99350.97
2023-11-03T02:16:00.669Z,99352.23
2023-11-03T02:17:00.950Z,99349.07
2023-11-03T02:18:01.177Z,99351.73
2023-11-03T02:19:01.603Z,99352.06
2023-11-03T02:20:01.761Z,99353.93
2023-11-03T02:21:01.879Z,99352.95
2023-11-03T02:22:02.221Z,99355.56
2023-11-03T02:23:02.395Z,99355.44
2023-11-03T02:24:02.723Z,99360.06
2023-11-03T02:25:03.655Z,99361.2
2023-11-03T02:26:05.696Z,99365.23
2023-11-03T02:27:03.967Z,99362.77
2023-11-03T02:28:04.080Z,99356.06
2023-11-03T02:29:04.805Z,99362.7
2023-11-03T02:30:05.620Z,99359.8
2023-11-03T02:31:05.245Z,99361.36
2023-11-03T02:32:05.834Z,99357.98
2023-11-03T02:33:05.776Z,99361.61
2023-11-03T02:34:06.177Z,99362.27
2023-11-03T02:35:07.509Z,99361.11
2023-11-03T02:36:07.290Z,99364.39
2023-11-03T02:37:07.132Z,99360.74
2023-11-03T02:38:07.324Z,99364.56
2023-11-03T02:39:08.348Z,99359.88
2023-11-03T02:40:09.112Z,99360.8
2023-11-03T02:41:08.243Z,99364.39
2023-11-03T02:42:08.787Z,99360.2
2023-11-03T02:43:09.058Z,99363.28
2023-11-03T02:44:09.299Z,99365.56
2023-11-03T02:45:11.450Z,99361.89
2023-11-03T02:46:10.050Z,99364.91
2023-11-03T02:47:10.437Z,99365.16
2023-11-03T02:48:10.602Z,99366.34
2023-11-03T02:49:11.236Z,99361.61
2023-11-03T02:50:11.496Z,99364.66
2023-11-03T02:51:11.811Z,99363.58
2023-11-03T02:52:12.110Z,99361.59
2023-11-03T02:53:12.493Z,99359.27
2023-11-03T02:54:12.536Z,99355.66
2023-11-03T02:55:13.309Z,99351.3
2023-11-03T02:57:14.201Z,99352.89
2023-11-03T02:58:14.342Z,99351.47
2023-11-03T02:59:14.939Z,99350.99
2023-11-03T03:00:15.653Z,99349.43
2023-11-03T03:01:15.176Z,99350.75
2023-11-03T03:02:15.558Z,99351.52
2023-11-03T03:03:16.080Z,99353.19
2023-11-03T03:04:16.230Z,99350.76
2023-11-03T03:05:16.596Z,99346.2
2023-11-03T03:06:16.846Z,99347.48
2023-11-03T03:07:17.396Z,99345.7
2023-11-03T03:08:17.646Z,99347.52
2023-11-03T03:09:17.955Z,99345.48
2023-11-03T03:10:18.224Z,99345.23
2023-11-03T03:11:18.591Z,99340.36
2023-11-03T03:12:19.119Z,99339.3
2023-11-03T03:13:19.300Z,99342.56
2023-11-03T03:14:19.429Z,99338.34
2023-11-03T03:15:19.957Z,99331.98
2023-11-03T03:16:21.598Z,99333.1
2023-11-03T03:17:20.576Z,99330.12
2023-11-03T03:18:21.065Z,99327.52
2023-11-03T03:19:21.323Z,99325.53
2023-11-03T03:20:21.572Z,99319.31
2023-11-03T03:21:21.830Z,99313.66
2023-11-03T03:22:22.361Z,99317.89
2023-11-03T03:23:22.449Z,99313.09
2023-11-03T03:24:22.874Z,99317.39
2023-11-03T03:25:23.402Z,99310.31
2023-11-03T03:26:23.509Z,99310.17
2023-11-03T03:27:24.741Z,99305.47
2023-11-03T03:28:24.141Z,99306.68
2023-11-03T03:29:25.677Z,99305.19
2023-11-03T03:30:24.871Z,99305.98
2023-11-03T03:31:25.176Z,99303.05
2023-11-03T03:32:25.783Z,99305.31
2023-11-03T03:33:25.801Z,99306.43
2023-11-03T03:34:26.327Z,99307.53
2023-11-03T03:35:26.550Z,99306.09
2023-11-03T03:36:26.843Z,99310.22
2023-11-03T03:37:27.271Z,99305.84
2023-11-03T03:38:27.566Z,99304.62
2023-11-03T03:39:27.687Z,99310.11
2023-11-03T03:40:27.999Z,99307.86
2023-11-03T03:41:28.511Z,99306.45
2023-11-03T03:42:29.763Z,99306.6
2023-11-03T03:43:29.046Z,99306.27
2023-11-03T03:44:29.369Z,99305.87
2023-11-03T03:45:29.772Z,99311.25
2023-11-03T03:46:37.551Z,99309.94
2023-11-03T03:47:35.197Z,99307.86
2023-11-03T03:48:35.327Z,99310.66
2023-11-03T03:49:36.365Z,99306.89
2023-11-03T03:50:36.100Z,99307.44
2023-11-03T03:51:36.360Z,99302.87
2023-11-03T03:52:36.690Z,99300.51
2023-11-03T03:53:36.882Z,99300.18
2023-11-03T03:54:37.405Z,99292.97
2023-11-03T03:55:37.812Z,99295.66
2023-11-03T03:56:38.046Z,99288.56
2023-11-03T03:57:38.270Z,99293.38
2023-11-03T03:58:39.281Z,99291
2023-11-03T03:59:38.978Z,99291.32
2023-11-03T04:00:39.431Z,99286.27
2023-11-03T04:01:39.614Z,99285.59
2023-11-03T04:02:39.925Z,99281.17
2023-11-03T04:03:40.170Z,99279.03
2023-11-03T04:04:40.616Z,99277.07
2023-11-03T04:05:40.893Z,99273.48
2023-11-03T04:06:41.190Z,99277.85
2023-11-03T04:07:41.714Z,99274.77
2023-11-03T04:08:42.024Z,99273.05
2023-11-03T04:09:42.282Z,99273.23
2023-11-03T04:10:42.548Z,99270.59
2023-11-03T04:11:43.053Z,99270.77
2023-11-03T04:12:43.425Z,99269.56
2023-11-03T04:13:43.784Z,99268.11
2023-11-03T04:14:43.786Z,99267.56
2023-11-03T04:15:44.246Z,99266.34
2023-11-03T04:16:45.434Z,99264.14
2023-11-03T04:17:44.921Z,99264.98
2023-11-03T04:18:45.206Z,99262.19
2023-11-03T04:19:45.664Z,99264.52
2023-11-03T04:20:45.778Z,99260.82
2023-11-03T04:21:46.317Z,99260.61
2023-11-03T04:22:46.616Z,99262.81
2023-11-03T04:23:46.815Z,99261.4
2023-11-03T04:24:47.344Z,99260.55
2023-11-03T04:25:47.449Z,99259.78
2023-11-03T04:26:47.870Z,99264.11
2023-11-03T04:27:49.215Z,99264.26
2023-11-03T04:28:48.393Z,99258.94
2023-11-03T04:29:48.927Z,99261.73
2023-11-03T04:30:49.348Z,99262.49
2023-11-03T04:31:49.419Z,99259.8
2023-11-03T04:32:49.965Z,99257.7
2023-11-03T04:33:50.296Z,99252.64
2023-11-03T04:34:50.716Z,99254.3
2023-11-03T04:35:50.790Z,99247.52
2023-11-03T04:36:51.150Z,99245.62
2023-11-03T04:37:51.613Z,99241.62
2023-11-03T04:38:51.719Z,99236.53
2023-11-03T04:39:52.195Z,99233.17
2023-11-03T04:40:52.563Z,99230.31
2023-11-03T04:41:52.810Z,99229.42
2023-11-03T04:42:53.459Z,99224.42
2023-11-03T04:43:53.506Z,99230.05
2023-11-03T04:44:53.728Z,99219.5
2023-11-03T04:45:54.369Z,99218.78
2023-11-03T04:46:54.656Z,99220.41
2023-11-03T04:47:55.063Z,99218.85
2023-11-03T04:48:55.311Z,99217.16
2023-11-03T04:49:55.376Z,99216.64
2023-11-03T04:50:56.021Z,99212.41
2023-11-03T04:51:56.343Z,99215.35
2023-11-03T04:52:56.648Z,99212.72
2023-11-03T04:53:56.850Z,99209.94
2023-11-03T04:54:57.368Z,99211.24
2023-11-03T04:55:57.467Z,99204.78
2023-11-03T04:56:57.819Z,99201.25
2023-11-03T04:58:01.439Z,99205.59
2023-11-03T04:58:58.716Z,99201.83
2023-11-03T04:59:59.029Z,99209.38
2023-11-03T05:00:59.606Z,99204.84
2023-11-03T05:01:59.979Z,99206.98
2023-11-03T05:03:00.427Z,99209.36
2023-11-03T05:04:01.117Z,99206.17
2023-11-03T05:05:00.899Z,99207.65
2023-11-03T05:06:01.351Z,99198.88
2023-11-03T05:07:03.232Z,99196.92
2023-11-03T05:08:01.979Z,99206.92
2023-11-03T05:09:02.190Z,99205.51
2023-11-03T05:10:02.553Z,99201.42
2023-11-03T05:11:03.313Z,99205.52
2023-11-03T05:12:04.144Z,99204.94
2023-11-03T05:13:03.538Z,99209.62
2023-11-03T05:14:03.835Z,99210.09
2023-11-03T05:15:05.799Z,99212.9
2023-11-03T05:16:04.888Z,99214.94
2023-11-03T05:17:06.446Z,99210.98
2023-11-03T05:18:05.666Z,99211.24
2023-11-03T05:19:05.834Z,99209.68
2023-11-03T05:20:07.148Z,99210.6
2023-11-03T05:21:06.560Z,99212.24
2023-11-03T05:22:06.942Z,99209.45
2023-11-03T05:23:07.068Z,99212.73
2023-11-03T05:24:08.020Z,99210.01
2023-11-03T05:25:08.363Z,99207.31
2023-11-03T05:26:11.385Z,99205.19
2023-11-03T05:27:08.749Z,99208.55
2023-11-03T05:28:09.272Z,99208.23
2023-11-03T05:29:19.168Z,99208.8
2023-11-03T05:30:13.913Z,99203.95
2023-11-03T05:31:13.732Z,99202.32
2023-11-03T05:32:14.114Z,99200.2
2023-11-03T05:33:16.331Z,99196.44
2023-11-03T05:34:14.931Z,99196.5
2023-11-03T05:35:15.457Z,99197.89
2023-11-03T05:36:15.361Z,99201.91
2023-11-03T05:37:15.931Z,99201.11
2023-11-03T05:38:17.437Z,99196.68
2023-11-03T05:39:16.503Z,99197.65
2023-11-03T05:40:16.905Z,99199.22
2023-11-03T05:41:17.120Z,99195.17
2023-11-03T05:42:17.338Z,99195.09
2023-11-03T05:43:17.867Z,99191.91
2023-11-03T05:44:18.379Z,99197.32
2023-11-03T05:45:18.299Z,99190.03
2023-11-03T05:46:18.975Z,99195.19
2023-11-03T05:47:19.000Z,99192.06
2023-11-03T05:48:19.537Z,99194.52
2023-11-03T05:49:20.185Z,99189.77
2023-11-03T05:50:20.122Z,99192.8
2023-11-03T05:51:20.681Z,99193.7
2023-11-03T05:52:20.811Z,99195.42
2023-11-03T05:53:21.092Z,99201.41
2023-11-03T05:54:21.674Z,99202.73
2023-11-03T05:55:21.954Z,99205
2023-11-03T05:56:22.254Z,99206.31
2023-11-03T05:57:22.468Z,99203.36
2023-11-03T05:58:23.200Z,99206.56
2023-11-03T05:59:23.185Z,99208.29
2023-11-03T06:00:23.414Z,99211.97
2023-11-03T06:01:24.110Z,99217.28
2023-11-03T06:02:24.254Z,99212.95
2023-11-03T06:03:25.143Z,99218.27
2023-11-03T06:04:24.992Z,99228.42
2023-11-03T06:05:25.087Z,99227.54
2023-11-03T06:06:25.719Z,99225.57
2023-11-03T06:07:26.034Z,99228.75
2023-11-03T06:08:26.240Z,99226.7
2023-11-03T06:09:26.838Z,99230.89
2023-11-03T06:10:26.835Z,99226.14
2023-11-03T06:11:27.261Z,99234.65
2023-11-03T06:12:27.565Z,99225.63
2023-11-03T06:13:28.010Z,99229.07
2023-11-03T06:14:28.401Z,99230.89
2023-11-03T06:15:28.621Z,99234.31
2023-11-03T06:16:28.802Z,99236.38
2023-11-03T06:17:30.508Z,99242.44
2023-11-03T06:18:29.805Z,99246.7
2023-11-03T06:19:30.090Z,99254.09
2023-11-03T06:20:30.388Z,99255.23
2023-11-03T06:21:30.705Z,99257.52
2023-11-03T06:22:31.034Z,99258.01
2023-11-03T06:23:31.326Z,99264.22
2023-11-03T06:24:31.958Z,99263.67
2023-11-03T06:25:32.083Z,99263.08
2023-11-03T06:26:32.500Z,99263.55
2023-11-03T06:27:32.917Z,99262.95
2023-11-03T06:28:33.102Z,99267.29
2023-11-03T06:29:35.381Z,99265.41
2023-11-03T06:30:33.841Z,99270.12
2023-11-03T06:31:35.981Z,99271.58
2023-11-03T06:32:34.767Z,99279.83
2023-11-03T06:33:34.783Z,99282.64
2023-11-03T06:34:35.145Z,99275.83
2023-11-03T06:35:35.619Z,99281.56
2023-11-03T06:36:41.046Z,99282.78
2023-11-03T06:37:40.016Z,99277.36
2023-11-03T06:38:40.241Z,99282.36
2023-11-03T06:39:40.778Z,99279.23
2023-11-03T06:40:41.195Z,99287.52
2023-11-03T06:41:41.495Z,99290.66
2023-11-03T06:42:42.549Z,99293
2023-11-03T06:43:42.500Z,99289.9
2023-11-03T06:44:42.435Z,99292.42
2023-11-03T06:45:42.946Z,99295.12
2023-11-03T06:46:43.165Z,99295.44
2023-11-03T06:47:43.803Z,99293.89
2023-11-03T06:48:44.017Z,99292.64
2023-11-03T06:49:44.660Z,99294.59
2023-11-03T06:50:44.743Z,99293.22
2023-11-03T06:51:45.166Z,99293.47
2023-11-03T06:52:45.211Z,99294.67
2023-11-03T06:53:45.862Z,99295.91
2023-11-03T06:54:45.829Z,99296.8
2023-11-03T06:55:46.599Z,99294.34
2023-11-03T06:56:46.820Z,99295.65
2023-11-03T06:57:46.948Z,99300.91
2023-11-03T06:58:47.362Z,99299.92
2023-11-03T06:59:47.645Z,99303.28
2023-11-03T07:00:48.177Z,99301.55
2023-11-03T07:01:48.271Z,99303.46
2023-11-03T07:02:48.873Z,99303.74
2023-11-03T07:03:49.097Z,99304.12
2023-11-03T07:04:51.865Z,99302.26
2023-11-03T07:05:50.663Z,99302.56
2023-11-03T07:06:51.114Z,99300.22
2023-11-03T07:07:51.308Z,99304.8
2023-11-03T07:08:51.817Z,99300.47
2023-11-03T07:09:52.156Z,99299.75
2023-11-03T07:10:52.552Z,99300.73
2023-11-03T07:11:53.516Z,99298.52
2023-11-03T07:12:53.215Z,99293.27
2023-11-03T07:13:53.376Z,99294.77
2023-11-03T07:14:54.230Z,99295.66
2023-11-03T07:15:54.221Z,99295.05
2023-11-03T07:16:55.576Z,99292.09
2023-11-03T07:17:59.369Z,99293.2
2023-11-03T07:18:57.013Z,99292.61
2023-11-03T07:19:57.421Z,99290.19
2023-11-03T07:20:57.837Z,99291.2
2023-11-03T07:21:58.039Z,99289.56
2023-11-03T07:22:58.469Z,99285.48
2023-11-03T07:23:58.791Z,99287.22
2023-11-03T07:24:59.312Z,99286.3
2023-11-03T07:25:59.491Z,99288.09
2023-11-03T07:26:59.704Z,99284.67
2023-11-03T07:28:00.199Z,99283.97
2023-11-03T07:29:00.702Z,99285.41
2023-11-03T07:30:00.962Z,99284.64
2023-11-03T07:31:03.156Z,99284.89
2023-11-03T07:32:01.683Z,99280.61
2023-11-03T07:33:02.080Z,99277.58
2023-11-03T07:34:03.525Z,99284.78
2023-11-03T07:35:02.858Z,99280.71
2023-11-03T07:36:03.366Z,99280.61
2023-11-03T07:37:03.819Z,99272.91
2023-11-03T07:38:03.906Z,99270.29
2023-11-03T07:39:04.487Z,99271.05
2023-11-03T07:40:05.514Z,99267.61
2023-11-03T07:41:05.736Z,99262.48
2023-11-03T07:42:05.465Z,99262.27
2023-11-03T07:43:05.556Z,99260.95
2023-11-03T07:44:06.193Z,99259.83
2023-11-03T07:45:07.532Z,99256.22
2023-11-03T07:46:06.856Z,99253.89
2023-11-03T07:47:07.185Z,99252.48
2023-11-03T07:48:07.292Z,99252.27
2023-11-03T07:49:07.646Z,99253.05
2023-11-03T07:50:09.597Z,99251.73
2023-11-03T07:51:08.588Z,99244.73
2023-11-03T07:52:08.958Z,99244.71
2023-11-03T07:53:08.998Z,99242.23
2023-11-03T07:54:09.419Z,99246.34
2023-11-03T07:55:10.597Z,99243.53
2023-11-03T07:56:10.555Z,99244.2
2023-11-03T07:57:10.659Z,99244.27
2023-11-03T07:58:11.124Z,99246.81
2023-11-03T07:59:11.378Z,99244.2
2023-11-03T08:00:12.826Z,99247.34
2023-11-03T08:01:12.485Z,99242.37
2023-11-03T08:02:12.441Z,99245.31
2023-11-03T08:03:13.174Z,99235.89
2023-11-03T08:04:13.545Z,99243.17
2023-11-03T08:05:13.833Z,99238.74
2023-11-03T08:06:13.932Z,99237.64
2023-11-03T08:07:14.432Z,99236.5
2023-11-03T08:08:15.466Z,99231.87
2023-11-03T08:09:15.236Z,99239.16
2023-11-03T08:10:15.786Z,99235.53
2023-11-03T08:11:15.751Z,99236.51
2023-11-03T08:12:16.289Z,99238
2023-11-03T08:13:16.663Z,99244.97
2023-11-03T08:14:16.815Z,99237.18
2023-11-03T08:15:17.630Z,99243.2
2023-11-03T08:16:17.959Z,99247.95
2023-11-03T08:17:20.031Z,99243.34
2023-11-03T08:18:19.595Z,99242.12
2023-11-03T08:19:18.711Z,99250.95
2023-11-03T08:20:19.222Z,99252.91
2023-11-03T08:21:19.414Z,99252.83
2023-11-03T08:22:19.911Z,99259.02
2023-11-03T08:23:22.362Z,99255.87
2023-11-03T08:24:20.459Z,99259.05
2023-11-03T08:25:21.039Z,99263.39
2023-11-03T08:26:21.426Z,99255.23
2023-11-03T08:27:21.706Z,99250.05
2023-11-03T08:28:22.049Z,99253.17
2023-11-03T08:29:22.645Z,99252.25
2023-11-03T08:30:23.078Z,99253.66
2023-11-03T08:31:24.536Z,99247.94
2023-11-03T08:32:23.620Z,99251.54
2023-11-03T08:33:24.081Z,99250.64
2023-11-03T08:34:24.365Z,99243.08
2023-11-03T08:35:25.091Z,99243.47
2023-11-03T08:36:25.378Z,99248.03
2023-11-03T08:37:25.495Z,99246.7
2023-11-03T08:38:25.918Z,99238.94
2023-11-03T08:39:30.137Z,99241.03
2023-11-03T08:40:28.491Z,99243.11
2023-11-03T08:41:28.677Z,99249.97
2023-11-03T08:42:28.978Z,99241.27
2023-11-03T08:43:29.424Z,99242.23
2023-11-03T08:44:35.233Z,99238.24
2023-11-03T08:45:32.691Z,99233.9
2023-11-03T08:46:33.118Z,99235.22
2023-11-03T08:47:33.440Z,99232.46
2023-11-03T08:48:33.921Z,99235.79
2023-11-03T08:49:34.114Z,99235.25
2023-11-03T08:50:34.563Z,99230.81
2023-11-03T08:51:35.302Z,99231.19
2023-11-03T08:52:35.514Z,99234.36
2023-11-03T08:53:35.915Z,99233.34
2023-11-03T08:54:38.936Z,99236.27
2023-11-03T08:55:36.554Z,99238.63
2023-11-03T08:56:37.157Z,99237.98
2023-11-03T08:57:39.222Z,99234
2023-11-03T08:58:37.733Z,99234.67
2023-11-03T08:59:38.310Z,99233.28
2023-11-03T09:00:38.416Z,99229.56
2023-11-03T09:01:38.835Z,99226.8
2023-11-03T09:02:40.368Z,99225.62
2023-11-03T09:03:40.248Z,99224.25
2023-11-03T09:04:40.214Z,99220.76
2023-11-03T09:05:40.296Z,99221.98
2023-11-03T09:06:41.193Z,99220.5
2023-11-03T09:07:42.371Z,99215.02
2023-11-03T09:08:41.541Z,99212.09
2023-11-03T09:09:41.967Z,99211.7
2023-11-03T09:10:42.386Z,99212.31
2023-11-03T09:11:42.717Z,99209.2
2023-11-03T09:12:43.250Z,99206.62
2023-11-03T09:13:56.336Z,99211.01
2023-11-03T09:14:45.362Z,99207.91
2023-11-03T09:15:51.376Z,99205.03
2023-11-03T09:16:45.091Z,99208.79
2023-11-03T09:17:45.556Z,99207.44
2023-11-03T09:18:47.534Z,99204.59
2023-11-03T09:19:46.237Z,99205.62
2023-11-03T09:20:46.747Z,99201.58
2023-11-03T09:21:46.941Z,99203.91
2023-11-03T09:22:47.476Z,99200.09
2023-11-03T09:23:47.715Z,99199.03
2023-11-03T09:24:48.100Z,99201.75
2023-11-03T09:25:48.942Z,99195.2
2023-11-03T09:26:57.485Z,99192.95
2023-11-03T09:27:49.269Z,99191.33
2023-11-03T09:28:49.676Z,99189.58
2023-11-03T09:29:49.878Z,99188.94
2023-11-03T09:30:50.535Z,99183.38
2023-11-03T09:31:52.269Z,99184.92
2023-11-03T09:32:51.328Z,99191.7
2023-11-03T09:33:51.702Z,99193.06
2023-11-03T09:34:52.007Z,99184.91
2023-11-03T09:35:52.383Z,99184.12
2023-11-03T09:36:52.826Z,99184.8
2023-11-03T09:37:53.201Z,99176.12
2023-11-03T09:38:53.520Z,99175.27
2023-11-03T09:39:53.959Z,99174.02
2023-11-03T09:40:55.598Z,99170.41
2023-11-03T09:42:03.081Z,99168.73
2023-11-03T09:42:56.237Z,99172.47
2023-11-03T09:43:56.229Z,99171.78
2023-11-03T09:44:56.942Z,99166.27
2023-11-03T09:45:57.170Z,99168.91
2023-11-03T09:47:01.973Z,99166.31
2023-11-03T09:48:00.813Z,99159.39
2023-11-03T09:49:00.031Z,99156.93
2023-11-03T09:50:00.256Z,99159.43
2023-11-03T09:51:02.803Z,99156.41
2023-11-03T09:52:06.248Z,99152.5
2023-11-03T09:53:09.178Z,99150.92
2023-11-03T09:54:07.690Z,99149.46
2023-11-03T09:55:12.799Z,99150.44
2023-11-03T09:56:11.772Z,99147.76
2023-11-03T09:57:12.289Z,99145.91
2023-11-03T09:58:11.313Z,99143.92
2023-11-03T09:59:11.677Z,99143.7
2023-11-03T10:00:16.619Z,99136.02
2023-11-03T10:01:15.115Z,99137.23
2023-11-03T10:02:17.522Z,99134.78
2023-11-03T10:03:15.274Z,99130.95
2023-11-03T10:04:15.488Z,99132.66
2023-11-03T10:05:16.754Z,99132.77
2023-11-03T10:06:16.474Z,99124.82
2023-11-03T10:07:16.708Z,99129.98
2023-11-03T10:08:17.164Z,99132.86
2023-11-03T10:09:17.266Z,99130.4
2023-11-03T10:10:18.041Z,99137.44
2023-11-03T10:11:18.327Z,99136.2
2023-11-03T10:12:18.634Z,99131.79
2023-11-03T10:13:18.955Z,99132.68
2023-11-03T10:14:19.362Z,99133.08
2023-11-03T10:15:19.882Z,99128.27
2023-11-03T10:16:20.316Z,99132.84
2023-11-03T10:17:20.717Z,99136.16
2023-11-03T10:18:23.558Z,99128.44
2023-11-03T10:19:21.894Z,99130.95
2023-11-03T10:20:22.052Z,99126.69
2023-11-03T10:21:23.923Z,99124.86
2023-11-03T10:22:24.524Z,99123.75
2023-11-03T10:23:23.528Z,99118.92
2023-11-03T10:24:24.335Z,99115.8
2023-11-03T10:25:23.795Z,99117.86
2023-11-03T10:26:24.367Z,99115.88
2023-11-03T10:27:24.784Z,99115.34
2023-11-03T10:28:25.721Z,99107.89
2023-11-03T10:29:25.500Z,99107.09
2023-11-03T10:30:27.643Z,99103.21
2023-11-03T10:31:26.474Z,99106.55
2023-11-03T10:32:26.670Z,99102.38
2023-11-03T10:33:28.229Z,99102.48
2023-11-03T10:34:30.852Z,99102.97
2023-11-03T10:35:28.317Z,99101.58
2023-11-03T10:36:30.051Z,99099.61
2023-11-03T10:37:30.824Z,99093.09
2023-11-03T10:38:29.880Z,99086.55
2023-11-03T10:39:30.079Z,99087.91
2023-11-03T10:40:30.405Z,99087.11
2023-11-03T10:41:32.451Z,99083.44
2023-11-03T10:42:31.788Z,99080.9
2023-11-03T10:43:41.056Z,99081.78
2023-11-03T10:44:33.820Z,99084.88
2023-11-03T10:45:39.572Z,99085.89
2023-11-03T10:46:42.157Z,99077.58
2023-11-03T10:48:46.865Z,99088.05
2023-11-03T10:49:49.651Z,99077.12
2023-11-03T10:50:55.840Z,99078.98
2023-11-03T10:56:21.513Z,99077.98
2023-11-03T10:57:30.971Z,99073.83
2023-11-03T10:58:09.583Z,99072.79
2023-11-03T10:59:09.613Z,99074.7
2023-11-03T11:03:30.382Z,99067.12
2023-11-03T11:04:32.526Z,99062.7
2023-11-03T11:06:40.509Z,99065.96
2023-11-03T11:07:36.100Z,99062.16
2023-11-03T11:08:36.919Z,99060.52
2023-11-03T11:09:43.470Z,99064.76
2023-11-03T11:10:41.763Z,99062
2023-11-03T11:11:39.289Z,99057.49
2023-11-03T11:12:52.235Z,99057.11
2023-11-03T11:13:44.843Z,99062.16
2023-11-03T11:14:45.457Z,99051.84
2023-11-03T11:16:48.535Z,99049.73
2023-11-03T11:17:48.983Z,99049.77
2023-11-03T11:18:54.442Z,99052.31
2023-11-03T11:19:58.397Z,99050.11
2023-11-03T11:20:58.725Z,99038.77
2023-11-03T11:22:00.603Z,99049.05
2023-11-03T11:22:59.820Z,99051.63
2023-11-03T11:23:59.461Z,99047.44
2023-11-03T11:24:59.069Z,99048.22
2023-11-03T11:26:00.907Z,99050.17
2023-11-03T11:28:05.213Z,99046.95
2023-11-03T11:30:15.265Z,99052.84
2023-11-03T11:32:16.624Z,99049.62
2023-11-03T11:33:17.588Z,99050.12
2023-11-03T11:34:18.302Z,99049.01
2023-11-03T11:35:19.279Z,99048.75
2023-11-03T11:36:21.546Z,99049.59
2023-11-03T11:37:23.420Z,99048.45
2023-11-03T11:38:22.060Z,99046.36
2023-11-03T11:39:21.581Z,99051.17
2023-11-03T11:40:21.807Z,99056.02
2023-11-03T11:41:25.625Z,99049.01
2023-11-03T11:43:34.313Z,99052.19
2023-11-03T11:44:29.699Z,99051.84
2023-11-03T11:45:30.717Z,99040.66
2023-11-03T11:46:30.556Z,99039.65
2023-11-03T11:47:32.406Z,99041.86
2023-11-03T11:48:31.281Z,99038.27
2023-11-03T11:49:31.663Z,99037.98
2023-11-03T11:50:32.191Z,99038.75
2023-11-03T11:51:32.915Z,99030.99
2023-11-03T11:52:32.818Z,99038.47
2023-11-03T11:53:33.115Z,99034.12
2023-11-03T11:54:33.349Z,99033.63
2023-11-03T11:55:36.123Z,99033.34
2023-11-03T11:56:34.258Z,99034
2023-11-03T11:57:36.422Z,99040.46
2023-11-03T11:58:37.361Z,99034.45
2023-11-03T11:59:35.620Z,99041.39
2023-11-03T12:00:39.299Z,99038.7
2023-11-03T12:01:36.856Z,99037.7
2023-11-03T12:02:37.580Z,99043.69
2023-11-03T12:03:40.751Z,99046.34
2023-11-03T12:04:41.124Z,99047.75
2023-11-03T12:05:39.938Z,99043.97
2023-11-03T12:06:40.790Z,99050.57
2023-11-03T12:07:46.524Z,99048.27
2023-11-03T12:08:44.275Z,99048.81
2023-11-03T12:09:44.397Z,99050.27